sensor_id;sensor_type;location;lat;lon;timestamp;P1;durP1;ratioP1;P2;durP2;ratioP2
63095;SDS011;49184;55.596;37.770;2022-09-21T00:02:02;103.63;;;34.53;;
63095;SDS011;49184;55.596;37.770;2022-09-21T00:04:28;81.43;;;29.95;;
63095;SDS011;49184;55.596;37.770;2022-09-21T00:06:54;99.75;;;29.88;;
63095;SDS011;49184;55.596;37.770;2022-09-21T00:09:26;90.57;;;29.40;;
63095;SDS011;49184;55.596;37.770;2022-09-21T00:11:52;96.93;;;29.98;;
63095;SDS011;49184;55.596;37.770;2022-09-21T00:14:18;92.50;;;31.08;;
63095;SDS011;49184;55.596;37.770;2022-09-21T00:16:47;77.80;;;28.55;;
63095;SDS011;49184;55.596;37.770;2022-09-21T00:19:13;83.95;;;28.95;;
63095;SDS011;49184;55.596;37.770;2022-09-21T00:21:41;76.85;;;28.73;;
63095;SDS011;49184;55.596;37.770;2022-09-21T00:24:07;80.95;;;29.85;;
63095;SDS011;49184;55.596;37.770;2022-09-21T00:26:33;67.38;;;27.23;;
63095;SDS011;49184;55.596;37.770;2022-09-21T00:29:00;80.75;;;26.77;;
63095;SDS011;49184;55.596;37.770;2022-09-21T00:31:28;69.65;;;27.73;;
63095;SDS011;49184;55.596;37.770;2022-09-21T00:33:56;89.75;;;29.42;;
63095;SDS011;49184;55.596;37.770;2022-09-21T00:41:04;85.15;;;28.02;;
63095;SDS011;49184;55.596;37.770;2022-09-21T00:49:16;83.35;;;27.67;;
63095;SDS011;49184;55.596;37.770;2022-09-21T00:51:43;72.57;;;28.48;;
63095;SDS011;49184;55.596;37.770;2022-09-21T00:54:12;86.05;;;29.88;;
63095;SDS011;49184;55.596;37.770;2022-09-21T00:56:42;79.00;;;28.42;;
63095;SDS011;49184;55.596;37.770;2022-09-21T00:59:09;74.13;;;27.58;;
63095;SDS011;49184;55.596;37.770;2022-09-21T01:01:38;77.65;;;28.17;;
63095;SDS011;49184;55.596;37.770;2022-09-21T01:04:04;80.25;;;28.00;;
63095;SDS011;49184;55.596;37.770;2022-09-21T01:06:31;90.35;;;28.10;;
63095;SDS011;49184;55.596;37.770;2022-09-21T01:08:59;85.82;;;28.60;;
63095;SDS011;49184;55.596;37.770;2022-09-21T01:12:02;94.03;;;30.08;;
63095;SDS011;49184;55.596;37.770;2022-09-21T01:14:40;78.68;;;29.27;;
63095;SDS011;49184;55.596;37.770;2022-09-21T01:17:28;81.35;;;29.98;;
63095;SDS011;49184;55.596;37.770;2022-09-21T01:31:37;83.28;;;30.25;;
63095;SDS011;49184;55.596;37.770;2022-09-21T01:34:10;92.38;;;29.20;;
63095;SDS011;49184;55.596;37.770;2022-09-21T01:36:52;81.82;;;26.60;;
63095;SDS011;49184;55.596;37.770;2022-09-21T01:39:21;83.75;;;29.00;;
63095;SDS011;49184;55.596;37.770;2022-09-21T01:41:49;97.75;;;30.80;;
63095;SDS011;49184;55.596;37.770;2022-09-21T01:44:19;98.90;;;31.05;;
63095;SDS011;49184;55.596;37.770;2022-09-21T01:46:48;70.65;;;27.40;;
63095;SDS011;49184;55.596;37.770;2022-09-21T01:49:26;83.60;;;29.75;;
63095;SDS011;49184;55.596;37.770;2022-09-21T01:55:41;74.53;;;25.35;;
63095;SDS011;49184;55.596;37.770;2022-09-21T01:58:38;76.38;;;25.42;;
63095;SDS011;49184;55.596;37.770;2022-09-21T02:01:08;77.40;;;27.38;;
63095;SDS011;49184;55.596;37.770;2022-09-21T02:03:37;75.32;;;29.00;;
63095;SDS011;49184;55.596;37.770;2022-09-21T02:06:06;80.63;;;29.10;;
63095;SDS011;49184;55.596;37.770;2022-09-21T02:11:47;86.88;;;27.23;;
63095;SDS011;49184;55.596;37.770;2022-09-21T02:14:18;87.13;;;29.05;;
63095;SDS011;49184;55.596;37.770;2022-09-21T02:21:55;85.25;;;29.88;;
63095;SDS011;49184;55.596;37.770;2022-09-21T02:30:08;86.50;;;31.15;;
63095;SDS011;49184;55.596;37.770;2022-09-21T02:35:49;91.60;;;31.52;;
63095;SDS011;49184;55.596;37.770;2022-09-21T02:41:12;86.53;;;29.40;;
63095;SDS011;49184;55.596;37.770;2022-09-21T02:44:05;93.00;;;30.52;;
63095;SDS011;49184;55.596;37.770;2022-09-21T02:49:05;83.32;;;30.25;;
63095;SDS011;49184;55.596;37.770;2022-09-21T02:51:50;80.38;;;30.02;;
63095;SDS011;49184;55.596;37.770;2022-09-21T02:54:23;78.63;;;29.40;;
63095;SDS011;49184;55.596;37.770;2022-09-21T02:56:52;83.25;;;30.77;;
63095;SDS011;49184;55.596;37.770;2022-09-21T02:59:20;95.13;;;31.33;;
63095;SDS011;49184;55.596;37.770;2022-09-21T03:01:48;81.28;;;29.02;;
63095;SDS011;49184;55.596;37.770;2022-09-21T03:04:15;81.20;;;29.02;;
63095;SDS011;49184;55.596;37.770;2022-09-21T03:06:42;80.78;;;28.95;;
63095;SDS011;49184;55.596;37.770;2022-09-21T03:09:08;82.80;;;29.00;;
63095;SDS011;49184;55.596;37.770;2022-09-21T03:11:34;80.10;;;31.53;;
63095;SDS011;49184;55.596;37.770;2022-09-21T03:14:01;89.15;;;34.55;;
63095;SDS011;49184;55.596;37.770;2022-09-21T03:16:31;139.38;;;45.00;;
63095;SDS011;49184;55.596;37.770;2022-09-21T03:18:57;150.07;;;45.78;;
63095;SDS011;49184;55.596;37.770;2022-09-21T03:21:23;119.88;;;41.42;;
63095;SDS011;49184;55.596;37.770;2022-09-21T03:23:49;114.70;;;41.15;;
63095;SDS011;49184;55.596;37.770;2022-09-21T03:26:16;114.75;;;41.15;;
63095;SDS011;49184;55.596;37.770;2022-09-21T03:28:47;107.35;;;39.38;;
63095;SDS011;49184;55.596;37.770;2022-09-21T03:31:14;112.15;;;38.53;;
63095;SDS011;49184;55.596;37.770;2022-09-21T03:36:07;106.83;;;37.40;;
63095;SDS011;49184;55.596;37.770;2022-09-21T03:38:34;100.68;;;38.05;;
63095;SDS011;49184;55.596;37.770;2022-09-21T03:41:02;106.90;;;37.05;;
63095;SDS011;49184;55.596;37.770;2022-09-21T03:43:29;109.90;;;38.67;;
63095;SDS011;49184;55.596;37.770;2022-09-21T03:45:56;122.22;;;41.05;;
63095;SDS011;49184;55.596;37.770;2022-09-21T03:48:22;105.15;;;43.40;;
63095;SDS011;49184;55.596;37.770;2022-09-21T03:50:49;117.67;;;42.60;;
63095;SDS011;49184;55.596;37.770;2022-09-21T03:53:15;136.18;;;47.63;;
63095;SDS011;49184;55.596;37.770;2022-09-21T03:55:42;113.43;;;39.37;;
63095;SDS011;49184;55.596;37.770;2022-09-21T03:58:08;88.68;;;33.97;;
63095;SDS011;49184;55.596;37.770;2022-09-21T04:00:35;116.18;;;44.50;;
63095;SDS011;49184;55.596;37.770;2022-09-21T04:03:05;101.45;;;38.53;;
63095;SDS011;49184;55.596;37.770;2022-09-21T04:05:35;109.10;;;39.88;;
63095;SDS011;49184;55.596;37.770;2022-09-21T04:23:21;200.73;;;75.03;;
63095;SDS011;49184;55.596;37.770;2022-09-21T04:30:03;135.45;;;51.08;;
63095;SDS011;49184;55.596;37.770;2022-09-21T04:32:30;154.80;;;55.92;;
63095;SDS011;49184;55.596;37.770;2022-09-21T04:35:29;111.80;;;41.47;;
63095;SDS011;49184;55.596;37.770;2022-09-21T04:37:55;126.50;;;40.85;;
63095;SDS011;49184;55.596;37.770;2022-09-21T04:40:21;115.72;;;40.42;;
63095;SDS011;49184;55.596;37.770;2022-09-21T04:42:51;89.20;;;35.88;;
63095;SDS011;49184;55.596;37.770;2022-09-21T04:45:18;114.43;;;35.05;;
63095;SDS011;49184;55.596;37.770;2022-09-21T04:47:47;117.07;;;34.35;;
63095;SDS011;49184;55.596;37.770;2022-09-21T04:50:13;117.13;;;36.05;;
63095;SDS011;49184;55.596;37.770;2022-09-21T04:52:40;124.00;;;36.60;;
63095;SDS011;49184;55.596;37.770;2022-09-21T04:55:06;124.40;;;36.55;;
63095;SDS011;49184;55.596;37.770;2022-09-21T04:57:32;111.40;;;37.42;;
63095;SDS011;49184;55.596;37.770;2022-09-21T05:00:00;101.97;;;36.30;;
63095;SDS011;49184;55.596;37.770;2022-09-21T05:02:28;104.03;;;35.60;;
63095;SDS011;49184;55.596;37.770;2022-09-21T05:04:54;104.70;;;35.25;;
63095;SDS011;49184;55.596;37.770;2022-09-21T05:07:20;99.28;;;36.70;;
63095;SDS011;49184;55.596;37.770;2022-09-21T05:09:47;102.68;;;36.42;;
63095;SDS011;49184;55.596;37.770;2022-09-21T05:12:31;103.65;;;35.88;;
63095;SDS011;49184;55.596;37.770;2022-09-21T05:17:27;102.10;;;33.53;;
63095;SDS011;49184;55.596;37.770;2022-09-21T05:19:53;99.87;;;34.93;;
63095;SDS011;49184;55.596;37.770;2022-09-21T05:24:48;88.10;;;33.25;;
63095;SDS011;49184;55.596;37.770;2022-09-21T05:29:44;93.28;;;34.28;;
63095;SDS011;49184;55.596;37.770;2022-09-21T05:34:52;105.53;;;36.25;;
63095;SDS011;49184;55.596;37.770;2022-09-21T05:40:09;144.13;;;40.08;;
63095;SDS011;49184;55.596;37.770;2022-09-21T05:42:37;143.02;;;35.53;;
63095;SDS011;49184;55.596;37.770;2022-09-21T05:45:03;112.43;;;35.95;;
63095;SDS011;49184;55.596;37.770;2022-09-21T06:01:57;71.32;;;27.88;;
63095;SDS011;49184;55.596;37.770;2022-09-21T06:04:30;100.85;;;27.55;;
63095;SDS011;49184;55.596;37.770;2022-09-21T06:06:57;103.05;;;28.02;;
63095;SDS011;49184;55.596;37.770;2022-09-21T06:09:23;69.15;;;24.50;;
63095;SDS011;49184;55.596;37.770;2022-09-21T06:11:50;61.53;;;25.50;;
63095;SDS011;49184;55.596;37.770;2022-09-21T06:48:03;84.70;;;33.08;;
63095;SDS011;49184;55.596;37.770;2022-09-21T07:00:42;70.47;;;26.95;;
63095;SDS011;49184;55.596;37.770;2022-09-21T07:03:11;69.70;;;23.33;;
63095;SDS011;49184;55.596;37.770;2022-09-21T07:05:43;58.75;;;26.00;;
63095;SDS011;49184;55.596;37.770;2022-09-21T07:08:10;66.68;;;25.33;;
63095;SDS011;49184;55.596;37.770;2022-09-21T07:10:37;52.42;;;22.73;;
63095;SDS011;49184;55.596;37.770;2022-09-21T07:13:03;53.45;;;20.95;;
63095;SDS011;49184;55.596;37.770;2022-09-21T07:15:31;95.88;;;30.10;;
63095;SDS011;49184;55.596;37.770;2022-09-21T07:18:13;62.97;;;24.45;;
63095;SDS011;49184;55.596;37.770;2022-09-21T07:20:39;81.93;;;26.45;;
63095;SDS011;49184;55.596;37.770;2022-09-21T07:23:37;82.82;;;27.60;;
63095;SDS011;49184;55.596;37.770;2022-09-21T07:26:08;93.45;;;25.10;;
63095;SDS011;49184;55.596;37.770;2022-09-21T07:28:39;79.03;;;22.83;;
63095;SDS011;49184;55.596;37.770;2022-09-21T07:31:06;46.42;;;16.95;;
63095;SDS011;49184;55.596;37.770;2022-09-21T07:36:02;43.38;;;18.85;;
63095;SDS011;49184;55.596;37.770;2022-09-21T07:38:38;46.78;;;18.13;;
63095;SDS011;49184;55.596;37.770;2022-09-21T07:41:10;42.17;;;15.80;;
63095;SDS011;49184;55.596;37.770;2022-09-21T07:43:38;34.28;;;16.08;;
63095;SDS011;49184;55.596;37.770;2022-09-21T07:48:45;43.22;;;14.07;;
63095;SDS011;49184;55.596;37.770;2022-09-21T07:51:14;31.42;;;12.98;;
63095;SDS011;49184;55.596;37.770;2022-09-21T07:53:47;39.00;;;12.25;;
63095;SDS011;49184;55.596;37.770;2022-09-21T07:59:30;34.70;;;13.05;;
63095;SDS011;49184;55.596;37.770;2022-09-21T08:01:57;43.83;;;14.05;;
63095;SDS011;49184;55.596;37.770;2022-09-21T08:04:33;48.95;;;14.55;;
63095;SDS011;49184;55.596;37.770;2022-09-21T08:06:59;43.33;;;13.05;;
63095;SDS011;49184;55.596;37.770;2022-09-21T08:09:29;26.63;;;12.10;;
63095;SDS011;49184;55.596;37.770;2022-09-21T08:12:02;32.70;;;12.93;;
63095;SDS011;49184;55.596;37.770;2022-09-21T08:14:28;43.97;;;13.37;;
63095;SDS011;49184;55.596;37.770;2022-09-21T08:17:08;34.95;;;14.27;;
63095;SDS011;49184;55.596;37.770;2022-09-21T08:19:38;36.13;;;13.68;;
63095;SDS011;49184;55.596;37.770;2022-09-21T08:22:07;30.45;;;13.45;;
63095;SDS011;49184;55.596;37.770;2022-09-21T08:24:33;36.70;;;15.27;;
63095;SDS011;49184;55.596;37.770;2022-09-21T08:27:00;46.08;;;15.32;;
63095;SDS011;49184;55.596;37.770;2022-09-21T08:31:54;47.95;;;15.50;;
63095;SDS011;49184;55.596;37.770;2022-09-21T08:34:34;45.97;;;16.48;;
63095;SDS011;49184;55.596;37.770;2022-09-21T08:39:52;75.63;;;17.60;;
63095;SDS011;49184;55.596;37.770;2022-09-21T08:44:56;40.35;;;15.88;;
63095;SDS011;49184;55.596;37.770;2022-09-21T08:47:37;40.95;;;15.27;;
63095;SDS011;49184;55.596;37.770;2022-09-21T08:50:29;51.88;;;16.98;;
63095;SDS011;49184;55.596;37.770;2022-09-21T08:55:55;52.42;;;17.60;;
63095;SDS011;49184;55.596;37.770;2022-09-21T08:58:26;89.32;;;18.98;;
63095;SDS011;49184;55.596;37.770;2022-09-21T09:06:49;43.00;;;15.73;;
63095;SDS011;49184;55.596;37.770;2022-09-21T09:15:16;53.15;;;15.68;;
63095;SDS011;49184;55.596;37.770;2022-09-21T09:23:56;55.00;;;18.98;;
63095;SDS011;49184;55.596;37.770;2022-09-21T09:31:27;43.28;;;13.00;;
63095;SDS011;49184;55.596;37.770;2022-09-21T09:36:48;46.78;;;14.38;;
63095;SDS011;49184;55.596;37.770;2022-09-21T09:39:19;32.83;;;10.90;;
63095;SDS011;49184;55.596;37.770;2022-09-21T09:52:58;42.80;;;7.00;;
63095;SDS011;49184;55.596;37.770;2022-09-21T10:04:09;38.38;;;9.45;;
63095;SDS011;49184;55.596;37.770;2022-09-21T10:06:37;20.75;;;8.55;;
63095;SDS011;49184;55.596;37.770;2022-09-21T10:09:19;38.08;;;8.00;;
63095;SDS011;49184;55.596;37.770;2022-09-21T10:11:57;26.20;;;8.38;;
63095;SDS011;49184;55.596;37.770;2022-09-21T10:14:29;26.63;;;8.20;;
63095;SDS011;49184;55.596;37.770;2022-09-21T10:17:05;26.35;;;8.75;;
63095;SDS011;49184;55.596;37.770;2022-09-21T10:19:32;29.48;;;8.00;;
63095;SDS011;49184;55.596;37.770;2022-09-21T10:22:03;31.20;;;8.38;;
63095;SDS011;49184;55.596;37.770;2022-09-21T10:24:30;32.88;;;8.38;;
63095;SDS011;49184;55.596;37.770;2022-09-21T10:27:18;24.55;;;8.52;;
63095;SDS011;49184;55.596;37.770;2022-09-21T10:30:11;23.65;;;8.35;;
63095;SDS011;49184;55.596;37.770;2022-09-21T10:32:56;25.25;;;9.68;;
63095;SDS011;49184;55.596;37.770;2022-09-21T10:35:24;14.23;;;7.63;;
63095;SDS011;49184;55.596;37.770;2022-09-21T10:38:08;19.52;;;8.55;;
63095;SDS011;49184;55.596;37.770;2022-09-21T10:40:42;19.83;;;8.10;;
63095;SDS011;49184;55.596;37.770;2022-09-21T10:43:23;40.40;;;9.13;;
63095;SDS011;49184;55.596;37.770;2022-09-21T10:45:54;19.27;;;8.40;;
63095;SDS011;49184;55.596;37.770;2022-09-21T10:48:24;23.58;;;7.18;;
63095;SDS011;49184;55.596;37.770;2022-09-21T10:50:52;15.70;;;7.60;;
63095;SDS011;49184;55.596;37.770;2022-09-21T10:58:28;20.40;;;7.85;;
63095;SDS011;49184;55.596;37.770;2022-09-21T11:01:09;26.23;;;8.20;;
63095;SDS011;49184;55.596;37.770;2022-09-21T11:09:04;110.13;;;15.38;;
63095;SDS011;49184;55.596;37.770;2022-09-21T11:25:47;95.95;;;24.88;;
63095;SDS011;49184;55.596;37.770;2022-09-21T11:28:27;63.22;;;16.48;;
63095;SDS011;49184;55.596;37.770;2022-09-21T11:31:04;62.92;;;12.15;;
63095;SDS011;49184;55.596;37.770;2022-09-21T11:39:54;36.83;;;10.75;;
63095;SDS011;49184;55.596;37.770;2022-09-21T11:45:40;41.67;;;12.98;;
63095;SDS011;49184;55.596;37.770;2022-09-21T11:59:43;26.92;;;9.27;;
63095;SDS011;49184;55.596;37.770;2022-09-21T12:16:48;58.42;;;10.10;;
63095;SDS011;49184;55.596;37.770;2022-09-21T12:24:48;39.15;;;9.50;;
63095;SDS011;49184;55.596;37.770;2022-09-21T12:27:25;53.78;;;11.93;;
63095;SDS011;49184;55.596;37.770;2022-09-21T12:30:01;45.70;;;13.38;;
63095;SDS011;49184;55.596;37.770;2022-09-21T12:35:28;102.65;;;18.27;;
63095;SDS011;49184;55.596;37.770;2022-09-21T12:38:00;118.68;;;18.88;;
63095;SDS011;49184;55.596;37.770;2022-09-21T12:43:25;66.93;;;14.95;;
63095;SDS011;49184;55.596;37.770;2022-09-21T12:48:58;58.55;;;15.40;;
63095;SDS011;49184;55.596;37.770;2022-09-21T12:53:55;35.15;;;9.25;;
63095;SDS011;49184;55.596;37.770;2022-09-21T12:59:20;25.27;;;9.10;;
63095;SDS011;49184;55.596;37.770;2022-09-21T13:08:22;42.33;;;7.68;;
63095;SDS011;49184;55.596;37.770;2022-09-21T13:10:40;65.22;;;11.80;;
63095;SDS011;49184;55.596;37.770;2022-09-21T13:13:17;25.10;;;6.80;;
63095;SDS011;49184;55.596;37.770;2022-09-21T13:18:30;56.53;;;9.35;;
63095;SDS011;49184;55.596;37.770;2022-09-21T13:21:13;56.75;;;12.65;;
63095;SDS011;49184;55.596;37.770;2022-09-21T13:23:41;112.22;;;22.77;;
63095;SDS011;49184;55.596;37.770;2022-09-21T13:31:59;39.53;;;10.02;;
63095;SDS011;49184;55.596;37.770;2022-09-21T13:34:36;53.25;;;10.32;;
63095;SDS011;49184;55.596;37.770;2022-09-21T13:39:53;44.30;;;9.48;;
63095;SDS011;49184;55.596;37.770;2022-09-21T13:48:11;44.90;;;12.07;;
63095;SDS011;49184;55.596;37.770;2022-09-21T13:50:45;46.67;;;14.60;;
63095;SDS011;49184;55.596;37.770;2022-09-21T13:55:50;105.88;;;23.00;;
63095;SDS011;49184;55.596;37.770;2022-09-21T13:58:26;122.68;;;28.00;;
63095;SDS011;49184;55.596;37.770;2022-09-21T14:00:57;76.47;;;14.65;;
63095;SDS011;49184;55.596;37.770;2022-09-21T14:03:32;63.30;;;15.63;;
63095;SDS011;49184;55.596;37.770;2022-09-21T14:06:10;81.82;;;16.90;;
63095;SDS011;49184;55.596;37.770;2022-09-21T14:11:51;57.75;;;13.63;;
63095;SDS011;49184;55.596;37.770;2022-09-21T14:14:24;58.03;;;12.38;;
63095;SDS011;49184;55.596;37.770;2022-09-21T14:17:00;67.00;;;12.25;;
63095;SDS011;49184;55.596;37.770;2022-09-21T14:32:32;29.33;;;8.82;;
63095;SDS011;49184;55.596;37.770;2022-09-21T14:35:21;33.30;;;8.25;;
63095;SDS011;49184;55.596;37.770;2022-09-21T14:37:51;19.45;;;7.90;;
63095;SDS011;49184;55.596;37.770;2022-09-21T14:40:26;37.08;;;10.82;;
63095;SDS011;49184;55.596;37.770;2022-09-21T14:43:14;38.42;;;10.68;;
63095;SDS011;49184;55.596;37.770;2022-09-21T14:46:10;24.17;;;10.30;;
63095;SDS011;49184;55.596;37.770;2022-09-21T15:00:56;32.10;;;12.32;;
63095;SDS011;49184;55.596;37.770;2022-09-21T15:13:07;26.50;;;10.13;;
63095;SDS011;49184;55.596;37.770;2022-09-21T15:15:50;22.50;;;9.35;;
63095;SDS011;49184;55.596;37.770;2022-09-21T15:18:45;19.10;;;9.63;;
63095;SDS011;49184;55.596;37.770;2022-09-21T15:21:19;56.40;;;31.02;;
63095;SDS011;49184;55.596;37.770;2022-09-21T15:23:53;39.38;;;21.73;;
63095;SDS011;49184;55.596;37.770;2022-09-21T15:26:28;25.75;;;14.43;;
63095;SDS011;49184;55.596;37.770;2022-09-21T15:29:02;29.20;;;14.80;;
63095;SDS011;49184;55.596;37.770;2022-09-21T15:31:36;32.08;;;14.35;;
63095;SDS011;49184;55.596;37.770;2022-09-21T15:34:04;25.13;;;11.38;;
63095;SDS011;49184;55.596;37.770;2022-09-21T15:36:37;31.20;;;11.88;;
63095;SDS011;49184;55.596;37.770;2022-09-21T15:39:05;24.13;;;12.70;;
63095;SDS011;49184;55.596;37.770;2022-09-21T15:41:39;31.77;;;12.27;;
63095;SDS011;49184;55.596;37.770;2022-09-21T15:44:22;29.05;;;11.93;;
63095;SDS011;49184;55.596;37.770;2022-09-21T15:46:56;25.33;;;10.45;;
63095;SDS011;49184;55.596;37.770;2022-09-21T15:49:24;25.33;;;10.95;;
63095;SDS011;49184;55.596;37.770;2022-09-21T15:52:02;22.30;;;10.98;;
63095;SDS011;49184;55.596;37.770;2022-09-21T16:00:02;28.67;;;12.35;;
63095;SDS011;49184;55.596;37.770;2022-09-21T16:02:36;29.85;;;12.27;;
63095;SDS011;49184;55.596;37.770;2022-09-21T16:05:10;34.83;;;12.65;;
63095;SDS011;49184;55.596;37.770;2022-09-21T16:07:39;31.67;;;12.50;;
63095;SDS011;49184;55.596;37.770;2022-09-21T16:12:59;28.42;;;11.15;;
63095;SDS011;49184;55.596;37.770;2022-09-21T16:18:48;41.13;;;11.85;;
63095;SDS011;49184;55.596;37.770;2022-09-21T16:21:22;29.27;;;12.32;;
63095;SDS011;49184;55.596;37.770;2022-09-21T16:23:53;32.00;;;11.57;;
63095;SDS011;49184;55.596;37.770;2022-09-21T16:26:33;28.75;;;10.90;;
63095;SDS011;49184;55.596;37.770;2022-09-21T16:29:16;32.05;;;14.82;;
63095;SDS011;49184;55.596;37.770;2022-09-21T16:31:48;21.98;;;12.60;;
63095;SDS011;49184;55.596;37.770;2022-09-21T16:36:58;17.95;;;7.80;;
63095;SDS011;49184;55.596;37.770;2022-09-21T16:39:26;16.55;;;8.38;;
63095;SDS011;49184;55.596;37.770;2022-09-21T16:44:24;21.52;;;8.07;;
63095;SDS011;49184;55.596;37.770;2022-09-21T16:50:05;31.38;;;10.40;;
63095;SDS011;49184;55.596;37.770;2022-09-21T16:52:38;20.48;;;9.80;;
63095;SDS011;49184;55.596;37.770;2022-09-21T16:55:09;26.08;;;10.13;;
63095;SDS011;49184;55.596;37.770;2022-09-21T17:00:30;23.10;;;9.40;;
63095;SDS011;49184;55.596;37.770;2022-09-21T17:03:03;23.50;;;10.90;;
63095;SDS011;49184;55.596;37.770;2022-09-21T17:05:52;23.77;;;11.18;;
63095;SDS011;49184;55.596;37.770;2022-09-21T17:08:18;29.23;;;11.48;;
63095;SDS011;49184;55.596;37.770;2022-09-21T17:11:07;25.95;;;12.05;;
63095;SDS011;49184;55.596;37.770;2022-09-21T17:13:35;24.63;;;10.77;;
63095;SDS011;49184;55.596;37.770;2022-09-21T17:18:28;22.67;;;10.43;;
63095;SDS011;49184;55.596;37.770;2022-09-21T17:20:54;26.23;;;11.60;;
63095;SDS011;49184;55.596;37.770;2022-09-21T17:23:20;26.70;;;11.93;;
63095;SDS011;49184;55.596;37.770;2022-09-21T17:25:52;21.38;;;9.70;;
63095;SDS011;49184;55.596;37.770;2022-09-21T17:28:21;14.40;;;5.20;;
63095;SDS011;49184;55.596;37.770;2022-09-21T17:30:51;11.27;;;5.72;;
63095;SDS011;49184;55.596;37.770;2022-09-21T17:33:18;14.30;;;5.72;;
63095;SDS011;49184;55.596;37.770;2022-09-21T17:35:49;16.33;;;5.28;;
63095;SDS011;49184;55.596;37.770;2022-09-21T17:38:17;15.90;;;5.57;;
63095;SDS011;49184;55.596;37.770;2022-09-21T17:40:43;9.83;;;4.07;;
63095;SDS011;49184;55.596;37.770;2022-09-21T17:45:59;9.88;;;4.68;;
63095;SDS011;49184;55.596;37.770;2022-09-21T17:48:32;10.30;;;5.10;;
63095;SDS011;49184;55.596;37.770;2022-09-21T17:50:59;9.85;;;4.93;;
63095;SDS011;49184;55.596;37.770;2022-09-21T17:53:26;13.43;;;5.07;;
63095;SDS011;49184;55.596;37.770;2022-09-21T17:58:55;8.23;;;4.60;;
63095;SDS011;49184;55.596;37.770;2022-09-21T18:03:53;10.48;;;4.50;;
63095;SDS011;49184;55.596;37.770;2022-09-21T18:06:19;8.75;;;4.80;;
63095;SDS011;49184;55.596;37.770;2022-09-21T18:08:48;8.73;;;4.55;;
63095;SDS011;49184;55.596;37.770;2022-09-21T18:14:08;8.25;;;4.35;;
63095;SDS011;49184;55.596;37.770;2022-09-21T18:25:24;16.23;;;5.18;;
63095;SDS011;49184;55.596;37.770;2022-09-21T18:27:56;15.70;;;4.90;;
63095;SDS011;49184;55.596;37.770;2022-09-21T18:30:26;14.13;;;5.88;;
63095;SDS011;49184;55.596;37.770;2022-09-21T18:35:46;16.52;;;4.65;;
63095;SDS011;49184;55.596;37.770;2022-09-21T18:41:35;12.88;;;6.75;;
63095;SDS011;49184;55.596;37.770;2022-09-21T18:44:54;9.45;;;4.68;;
63095;SDS011;49184;55.596;37.770;2022-09-21T18:47:12;9.48;;;4.65;;
63095;SDS011;49184;55.596;37.770;2022-09-21T18:49:53;12.40;;;4.60;;
63095;SDS011;49184;55.596;37.770;2022-09-21T18:55:44;12.18;;;5.07;;
63095;SDS011;49184;55.596;37.770;2022-09-21T18:58:10;11.38;;;5.30;;
63095;SDS011;49184;55.596;37.770;2022-09-21T19:00:37;10.90;;;5.63;;
63095;SDS011;49184;55.596;37.770;2022-09-21T19:03:05;11.95;;;5.78;;
63095;SDS011;49184;55.596;37.770;2022-09-21T19:05:37;13.07;;;7.20;;
63095;SDS011;49184;55.596;37.770;2022-09-21T19:08:22;16.17;;;6.32;;
63095;SDS011;49184;55.596;37.770;2022-09-21T19:10:52;14.32;;;6.30;;
63095;SDS011;49184;55.596;37.770;2022-09-21T19:13:33;12.02;;;5.40;;
63095;SDS011;49184;55.596;37.770;2022-09-21T19:16:13;19.55;;;6.18;;
63095;SDS011;49184;55.596;37.770;2022-09-21T19:24:36;19.10;;;7.05;;
63095;SDS011;49184;55.596;37.770;2022-09-21T19:27:37;18.08;;;7.00;;
63095;SDS011;49184;55.596;37.770;2022-09-21T19:30:19;14.02;;;7.15;;
63095;SDS011;49184;55.596;37.770;2022-09-21T19:32:47;13.50;;;7.15;;
63095;SDS011;49184;55.596;37.770;2022-09-21T19:35:27;18.95;;;7.90;;
63095;SDS011;49184;55.596;37.770;2022-09-21T19:37:56;20.70;;;7.28;;
63095;SDS011;49184;55.596;37.770;2022-09-21T19:40:27;17.25;;;10.27;;
63095;SDS011;49184;55.596;37.770;2022-09-21T19:45:43;16.83;;;8.68;;
63095;SDS011;49184;55.596;37.770;2022-09-21T19:48:20;16.02;;;7.72;;
63095;SDS011;49184;55.596;37.770;2022-09-21T19:50:52;15.20;;;7.93;;
63095;SDS011;49184;55.596;37.770;2022-09-21T19:53:21;14.07;;;8.10;;
63095;SDS011;49184;55.596;37.770;2022-09-21T19:56:07;13.77;;;7.80;;
63095;SDS011;49184;55.596;37.770;2022-09-21T19:58:54;18.58;;;8.48;;
63095;SDS011;49184;55.596;37.770;2022-09-21T20:01:39;14.38;;;7.32;;
63095;SDS011;49184;55.596;37.770;2022-09-21T20:04:18;13.18;;;7.32;;
63095;SDS011;49184;55.596;37.770;2022-09-21T20:09:52;16.52;;;7.57;;
63095;SDS011;49184;55.596;37.770;2022-09-21T20:12:42;26.15;;;8.52;;
63095;SDS011;49184;55.596;37.770;2022-09-21T20:15:22;15.48;;;7.70;;
63095;SDS011;49184;55.596;37.770;2022-09-21T20:18:00;24.25;;;9.00;;
63095;SDS011;49184;55.596;37.770;2022-09-21T20:20:43;17.98;;;9.10;;
63095;SDS011;49184;55.596;37.770;2022-09-21T20:23:12;24.83;;;10.15;;
63095;SDS011;49184;55.596;37.770;2022-09-21T20:28:19;28.10;;;10.43;;
63095;SDS011;49184;55.596;37.770;2022-09-21T20:33:13;21.35;;;9.70;;
63095;SDS011;49184;55.596;37.770;2022-09-21T20:35:42;20.88;;;9.07;;
63095;SDS011;49184;55.596;37.770;2022-09-21T20:38:09;30.25;;;10.32;;
63095;SDS011;49184;55.596;37.770;2022-09-21T20:40:35;21.00;;;10.32;;
63095;SDS011;49184;55.596;37.770;2022-09-21T20:43:04;26.27;;;10.82;;
63095;SDS011;49184;55.596;37.770;2022-09-21T20:45:34;24.98;;;11.60;;
63095;SDS011;49184;55.596;37.770;2022-09-21T20:48:01;21.40;;;11.00;;
63095;SDS011;49184;55.596;37.770;2022-09-21T20:50:47;28.65;;;12.38;;
63095;SDS011;49184;55.596;37.770;2022-09-21T20:53:15;25.20;;;11.82;;
63095;SDS011;49184;55.596;37.770;2022-09-21T20:55:51;16.60;;;9.63;;
63095;SDS011;49184;55.596;37.770;2022-09-21T20:58:20;21.00;;;10.68;;
63095;SDS011;49184;55.596;37.770;2022-09-21T21:00:52;20.45;;;9.77;;
63095;SDS011;49184;55.596;37.770;2022-09-21T21:03:18;14.88;;;8.57;;
63095;SDS011;49184;55.596;37.770;2022-09-21T21:05:44;20.85;;;8.82;;
63095;SDS011;49184;55.596;37.770;2022-09-21T21:08:11;22.67;;;9.27;;
63095;SDS011;49184;55.596;37.770;2022-09-21T21:10:42;20.77;;;9.25;;
63095;SDS011;49184;55.596;37.770;2022-09-21T21:13:11;21.98;;;10.10;;
63095;SDS011;49184;55.596;37.770;2022-09-21T21:15:37;22.53;;;10.30;;
63095;SDS011;49184;55.596;37.770;2022-09-21T21:18:03;25.48;;;10.90;;
63095;SDS011;49184;55.596;37.770;2022-09-21T21:20:29;22.23;;;9.10;;
63095;SDS011;49184;55.596;37.770;2022-09-21T21:22:56;17.67;;;9.75;;
63095;SDS011;49184;55.596;37.770;2022-09-21T21:25:22;15.35;;;8.88;;
63095;SDS011;49184;55.596;37.770;2022-09-21T21:27:48;26.50;;;8.70;;
63095;SDS011;49184;55.596;37.770;2022-09-21T21:30:14;14.68;;;7.97;;
63095;SDS011;49184;55.596;37.770;2022-09-21T21:32:42;17.33;;;8.73;;
63095;SDS011;49184;55.596;37.770;2022-09-21T21:35:08;16.30;;;9.20;;
63095;SDS011;49184;55.596;37.770;2022-09-21T21:37:34;18.00;;;8.93;;
63095;SDS011;49184;55.596;37.770;2022-09-21T21:40:03;19.67;;;8.95;;